createdAt,value
2022-11-09T00:01:07.196Z,25.60
2022-11-09T00:03:35.152Z,25.60
2022-11-09T00:06:03.236Z,25.70
2022-11-09T00:08:31.528Z,25.70
2022-11-09T00:11:07.539Z,25.70
2022-11-09T00:13:43.443Z,25.70
2022-11-09T00:16:14.107Z,25.70
2022-11-09T00:18:43.021Z,25.60
2022-11-09T00:21:13.404Z,25.60
2022-11-09T00:23:41.664Z,25.60
2022-11-09T00:26:11.012Z,25.60
2022-11-09T00:28:39.717Z,25.60
2022-11-09T00:31:28.123Z,25.60
2022-11-09T00:33:57.778Z,25.60
2022-11-09T00:36:28.450Z,25.60
2022-11-09T00:39:01.077Z,25.60
2022-11-09T00:41:29.582Z,25.60
2022-11-09T00:43:57.643Z,25.60
2022-11-09T00:46:26.245Z,25.60
2022-11-09T00:48:56.120Z,25.60
2022-11-09T00:51:24.859Z,25.60
2022-11-09T00:53:52.985Z,25.60
2022-11-09T00:56:21.726Z,25.60
2022-11-09T00:58:54.681Z,25.60
2022-11-09T01:01:23.630Z,25.60
2022-11-09T01:03:52.378Z,25.60
2022-11-09T01:06:25.728Z,25.60
2022-11-09T01:08:54.643Z,25.60
2022-11-09T01:11:23.679Z,25.60
2022-11-09T01:13:54.129Z,25.60
2022-11-09T01:16:24.068Z,25.60
2022-11-09T01:18:57.121Z,25.50
2022-11-09T01:21:27.409Z,25.50
2022-11-09T01:23:56.736Z,25.50
2022-11-09T01:26:27.426Z,25.50
2022-11-09T01:28:55.586Z,25.50
2022-11-09T01:31:24.470Z,25.60
2022-11-09T01:33:52.659Z,25.50
2022-11-09T01:36:23.183Z,25.40
2022-11-09T01:38:52.023Z,25.40
2022-11-09T01:41:28.580Z,25.40
2022-11-09T01:44:03.798Z,25.40
2022-11-09T01:46:39.492Z,25.30
2022-11-09T01:49:33.399Z,25.30
2022-11-09T01:52:39.047Z,25.30
2022-11-09T01:55:15.339Z,25.30
2022-11-09T01:57:58.586Z,25.20
2022-11-09T02:00:26.793Z,25.10
2022-11-09T02:03:05.120Z,25.10
2022-11-09T02:05:36.969Z,25.10
2022-11-09T02:08:07.352Z,25.10
2022-11-09T02:11:01.992Z,25.00
2022-11-09T02:13:32.948Z,25.10
2022-11-09T02:16:07.766Z,25.10
2022-11-09T02:18:37.519Z,25.10
2022-11-09T02:21:05.846Z,25.10
2022-11-09T02:23:33.911Z,25.10
2022-11-09T02:26:11.517Z,25.10
2022-11-09T02:28:41.484Z,25.20
2022-11-09T02:31:13.782Z,25.20
2022-11-09T02:34:09.868Z,25.20
2022-11-09T02:36:38.142Z,25.20
2022-11-09T02:39:14.018Z,25.10
2022-11-09T02:41:50.927Z,25.10
2022-11-09T02:44:20.001Z,25.10
2022-11-09T02:46:48.383Z,25.10
2022-11-09T02:49:16.610Z,25.00
2022-11-09T02:51:45.059Z,24.90
2022-11-09T02:54:13.245Z,25.00
2022-11-09T02:56:42.120Z,25.00
2022-11-09T02:59:10.547Z,25.00
2022-11-09T03:01:40.115Z,25.00
2022-11-09T03:04:08.418Z,25.00
2022-11-09T03:06:37.599Z,25.00
2022-11-09T03:09:13.864Z,25.00
2022-11-09T03:11:43.242Z,25.00
2022-11-09T03:14:13.891Z,25.00
2022-11-09T03:16:50.763Z,25.00
2022-11-09T03:19:20.371Z,25.00
2022-11-09T03:21:51.678Z,24.90
2022-11-09T03:24:24.074Z,24.90
2022-11-09T03:26:57.446Z,25.00
2022-11-09T03:29:25.624Z,24.90
2022-11-09T03:31:56.811Z,25.00
2022-11-09T03:34:25.118Z,24.90
2022-11-09T03:36:53.301Z,24.90
2022-11-09T03:39:22.932Z,24.90
2022-11-09T03:41:51.283Z,24.90
2022-11-09T03:44:19.893Z,24.80
2022-11-09T03:46:48.549Z,24.80
2022-11-09T03:49:16.834Z,24.80
2022-11-09T03:51:44.991Z,24.80
2022-11-09T03:54:13.163Z,24.80
2022-11-09T03:56:41.289Z,24.80
2022-11-09T03:59:09.426Z,24.80
2022-11-09T04:01:37.686Z,24.80
2022-11-09T04:04:05.921Z,24.90
2022-11-09T04:06:34.248Z,24.80
2022-11-09T04:09:02.712Z,24.80
2022-11-09T04:11:30.740Z,24.80
2022-11-09T04:13:59.049Z,24.80
2022-11-09T04:16:27.059Z,24.80
2022-11-09T04:18:55.328Z,24.80
2022-11-09T04:21:24.147Z,24.80
2022-11-09T04:23:52.478Z,24.80
2022-11-09T04:26:20.648Z,24.80
2022-11-09T04:28:48.805Z,24.80
2022-11-09T04:31:16.923Z,24.80
2022-11-09T04:33:45.072Z,24.80
2022-11-09T04:36:13.143Z,24.80
2022-11-09T04:38:41.398Z,24.90
2022-11-09T04:41:09.608Z,24.80
2022-11-09T04:43:37.875Z,24.90
2022-11-09T04:46:06.127Z,24.80
2022-11-09T04:48:34.876Z,24.80
2022-11-09T04:51:05.057Z,24.80
2022-11-09T04:53:34.061Z,24.80
2022-11-09T04:56:02.575Z,24.80
2022-11-09T04:58:30.877Z,24.80
2022-11-09T05:01:11.676Z,24.70
2022-11-09T05:03:42.144Z,24.70
2022-11-09T05:06:10.533Z,24.70
2022-11-09T05:08:38.694Z,24.70
2022-11-09T05:11:07.001Z,24.70
2022-11-09T05:13:35.249Z,24.80
2022-11-09T05:16:03.294Z,24.80
2022-11-09T05:18:31.554Z,24.80
2022-11-09T05:21:00.904Z,24.70
2022-11-09T05:23:29.276Z,24.70
2022-11-09T05:25:57.574Z,24.80
2022-11-09T05:28:25.775Z,24.80
2022-11-09T05:30:54.079Z,24.70
2022-11-09T05:33:22.429Z,24.70
2022-11-09T05:35:50.848Z,24.70
2022-11-09T05:38:19.090Z,24.70
2022-11-09T05:40:52.561Z,24.60
2022-11-09T05:43:21.310Z,24.60
2022-11-09T05:45:49.580Z,24.60
2022-11-09T05:48:19.039Z,24.60
2022-11-09T05:50:47.170Z,24.60
2022-11-09T05:53:21.974Z,24.60
2022-11-09T05:55:50.325Z,24.60
2022-11-09T05:58:18.491Z,24.60
2022-11-09T06:00:46.673Z,24.60
2022-11-09T06:03:14.825Z,24.60
2022-11-09T06:14:01.036Z,24.50
2022-11-09T06:16:29.368Z,24.50
2022-11-09T06:18:57.507Z,24.50
2022-11-09T06:21:25.702Z,24.50
2022-11-09T06:23:53.829Z,24.50
2022-11-09T06:29:16.102Z,24.50
2022-11-09T06:31:44.232Z,24.50
2022-11-09T06:34:12.418Z,24.50
2022-11-09T06:36:40.794Z,24.50
2022-11-09T06:39:08.809Z,24.50
2022-11-09T06:41:37.108Z,24.50
2022-11-09T06:44:05.557Z,24.50
2022-11-09T06:46:34.428Z,24.50
2022-11-09T06:49:02.595Z,24.50
2022-11-09T06:51:31.226Z,24.50
2022-11-09T06:53:59.368Z,24.50
2022-11-09T06:56:27.658Z,24.60
2022-11-09T06:58:55.937Z,24.60
2022-11-09T07:01:28.300Z,24.60
2022-11-09T07:03:56.616Z,24.60
2022-11-09T07:06:24.902Z,24.70
2022-11-09T07:08:56.557Z,24.70
2022-11-09T07:11:24.722Z,24.70
2022-11-09T07:13:57.225Z,24.80
2022-11-09T07:16:25.993Z,24.80
2022-11-09T07:18:54.127Z,24.80
2022-11-09T07:21:22.608Z,24.80
2022-11-09T07:23:51.359Z,24.90
2022-11-09T07:26:19.562Z,24.90
2022-11-09T07:28:47.830Z,25.00
2022-11-09T07:31:16.135Z,25.00
2022-11-09T07:33:44.314Z,25.00
2022-11-09T07:36:16.874Z,25.10
2022-11-09T07:38:48.221Z,25.10
2022-11-09T07:41:16.309Z,25.20
2022-11-09T07:43:44.575Z,25.30
2022-11-09T07:46:14.126Z,25.30
2022-11-09T07:48:42.422Z,25.30
2022-11-09T07:51:10.627Z,25.40
2022-11-09T07:53:39.187Z,25.50
2022-11-09T07:56:07.653Z,25.50
2022-11-09T07:58:35.941Z,25.60
2022-11-09T08:01:11.278Z,25.60
2022-11-09T08:03:39.452Z,25.70
2022-11-09T08:06:07.903Z,25.70
2022-11-09T08:08:36.135Z,25.80
2022-11-09T08:11:04.259Z,25.90
2022-11-09T08:13:32.778Z,25.90
2022-11-09T08:16:02.677Z,25.90
2022-11-09T08:18:31.381Z,26.00
2022-11-09T08:21:03.063Z,26.00
2022-11-09T08:23:31.545Z,26.10
2022-11-09T08:26:03.769Z,26.10
2022-11-09T08:28:32.698Z,26.20
2022-11-09T08:31:04.238Z,26.20
2022-11-09T08:33:37.448Z,26.30
2022-11-09T08:36:19.232Z,26.40
2022-11-09T08:38:47.793Z,26.40
2022-11-09T08:41:15.880Z,26.50
2022-11-09T08:43:44.382Z,26.50
2022-11-09T08:46:12.699Z,26.70
2022-11-09T08:48:40.781Z,26.70
2022-11-09T08:51:09.071Z,26.70
2022-11-09T08:53:37.272Z,26.70
2022-11-09T08:56:09.476Z,26.80
2022-11-09T08:58:37.882Z,26.80
2022-11-09T09:01:17.110Z,26.90
2022-11-09T09:03:45.695Z,26.90
2022-11-09T09:06:13.779Z,27.00
2022-11-09T09:08:42.008Z,27.00
2022-11-09T09:11:10.279Z,27.10
2022-11-09T09:13:43.039Z,27.10
2022-11-09T09:16:14.114Z,27.20
2022-11-09T09:18:42.327Z,27.20
2022-11-09T09:21:11.607Z,27.30
2022-11-09T09:23:39.795Z,27.40
2022-11-09T09:26:07.973Z,27.50
2022-11-09T09:28:36.422Z,27.60
2022-11-09T09:31:04.728Z,27.70
2022-11-09T09:33:33.334Z,27.70
2022-11-09T09:36:01.733Z,27.80
2022-11-09T09:38:30.284Z,27.90
2022-11-09T09:41:00.784Z,28.00
2022-11-09T09:43:44.856Z,28.00
2022-11-09T09:46:29.644Z,28.10
2022-11-09T09:49:21.125Z,28.20
2022-11-09T09:52:07.030Z,28.20
2022-11-09T09:54:41.544Z,28.30
2022-11-09T09:57:18.786Z,28.50
2022-11-09T09:59:55.281Z,28.60
2022-11-09T10:02:32.438Z,28.60
2022-11-09T10:05:11.212Z,28.70
2022-11-09T10:08:18.165Z,28.60
2022-11-09T10:11:13.036Z,28.50
2022-11-09T10:14:04.492Z,28.30
2022-11-09T10:16:54.049Z,28.30
2022-11-09T10:19:41.357Z,28.30
2022-11-09T10:22:15.942Z,28.20
2022-11-09T10:27:50.279Z,28.30
2022-11-09T10:30:20.826Z,28.40
2022-11-09T10:32:58.264Z,28.50
2022-11-09T10:35:40.295Z,28.70
2022-11-09T10:38:15.588Z,28.70
2022-11-09T10:40:56.409Z,28.70
2022-11-09T10:43:43.027Z,28.80
2022-11-09T10:46:29.469Z,28.80
2022-11-09T10:49:22.730Z,28.80
2022-11-09T10:52:31.172Z,28.90
2022-11-09T10:55:27.609Z,28.90
2022-11-09T10:58:35.038Z,29.00
2022-11-09T11:01:27.205Z,29.10
2022-11-09T11:04:24.592Z,28.90
2022-11-09T11:07:22.634Z,28.70
2022-11-09T11:10:20.150Z,28.70
2022-11-09T11:13:06.897Z,28.80
2022-11-09T11:15:53.402Z,28.70
2022-11-09T11:18:46.937Z,28.60
2022-11-09T11:21:33.927Z,28.70
2022-11-09T11:24:21.424Z,28.80
2022-11-09T11:27:17.186Z,28.80
2022-11-09T11:30:24.383Z,28.80
2022-11-09T11:33:18.659Z,28.70
2022-11-09T11:36:42.252Z,28.60
2022-11-09T11:39:40.655Z,28.60
2022-11-09T11:42:45.313Z,28.70
2022-11-09T11:45:42.276Z,28.70
2022-11-09T11:48:52.610Z,28.70
2022-11-09T11:51:54.670Z,28.70
2022-11-09T11:55:18.402Z,28.70
2022-11-09T11:58:37.857Z,28.70
2022-11-09T12:01:43.919Z,28.60
2022-11-09T12:04:33.373Z,28.50
2022-11-09T12:07:41.270Z,28.40
2022-11-09T12:10:54.922Z,28.40
2022-11-09T12:13:59.860Z,28.30
2022-11-09T12:17:08.029Z,28.30
2022-11-09T12:20:22.182Z,28.30
2022-11-09T12:23:16.720Z,28.20
2022-11-09T12:26:23.710Z,28.20
2022-11-09T12:29:20.637Z,28.20
2022-11-09T12:32:35.101Z,28.20
2022-11-09T12:35:41.130Z,28.20
2022-11-09T12:38:34.189Z,28.20
2022-11-09T12:41:24.584Z,28.10
2022-11-09T12:44:26.623Z,28.10
2022-11-09T12:47:17.590Z,28.10
2022-11-09T12:50:05.009Z,28.20
2022-11-09T12:52:52.640Z,28.30
2022-11-09T12:55:54.919Z,28.20
2022-11-09T12:58:41.562Z,28.20
2022-11-09T13:01:28.188Z,28.20
2022-11-09T13:04:20.429Z,28.30
2022-11-09T13:07:19.996Z,28.30
2022-11-09T13:10:20.843Z,28.40
2022-11-09T13:13:13.841Z,28.50
2022-11-09T13:16:29.711Z,28.60
2022-11-09T13:19:34.974Z,28.60
2022-11-09T13:22:24.538Z,28.50
2022-11-09T13:25:44.687Z,28.40
2022-11-09T13:28:34.265Z,28.40
2022-11-09T13:31:58.910Z,28.40
2022-11-09T13:34:48.735Z,28.40
2022-11-09T13:37:44.357Z,28.40
2022-11-09T13:40:33.864Z,28.40
2022-11-09T13:43:41.048Z,28.40
2022-11-09T13:46:31.368Z,28.50
2022-11-09T13:49:40.994Z,28.50
2022-11-09T13:52:49.227Z,28.70
2022-11-09T13:55:43.201Z,28.70
2022-11-09T13:58:39.496Z,28.80
2022-11-09T14:01:38.289Z,28.90
2022-11-09T14:04:28.433Z,29.00
2022-11-09T14:07:30.445Z,29.40
2022-11-09T14:10:35.406Z,29.60
2022-11-09T14:13:31.465Z,29.80
2022-11-09T14:16:29.627Z,29.70
2022-11-09T14:19:31.715Z,29.80
2022-11-09T14:22:20.631Z,30.00
2022-11-09T14:25:19.317Z,30.10
2022-11-09T14:28:24.452Z,30.10
2022-11-09T14:31:28.182Z,30.30
2022-11-09T14:34:17.218Z,30.50
2022-11-09T14:37:07.092Z,30.70
2022-11-09T14:39:53.948Z,30.70
2022-11-09T14:42:45.893Z,30.80
2022-11-09T14:45:32.975Z,30.90
2022-11-09T14:48:21.387Z,30.80
2022-11-09T14:51:09.418Z,31.10
2022-11-09T14:53:56.925Z,31.20
2022-11-09T14:56:44.247Z,31.50
2022-11-09T14:59:35.703Z,31.50
2022-11-09T15:02:24.077Z,31.70
2022-11-09T15:05:31.670Z,31.40
2022-11-09T15:08:22.386Z,31.70
2022-11-09T15:11:09.668Z,31.90
2022-11-09T15:13:56.363Z,31.90
2022-11-09T15:16:43.475Z,31.90
2022-11-09T15:19:34.455Z,32.10
2022-11-09T15:22:42.624Z,32.00
2022-11-09T15:25:53.609Z,32.50
2022-11-09T15:33:29.764Z,32.30
2022-11-09T15:36:30.448Z,31.90
2022-11-09T15:39:21.916Z,32.10
2022-11-09T15:42:11.161Z,32.30
2022-11-09T15:45:00.755Z,32.60
2022-11-09T15:47:56.134Z,32.70
2022-11-09T15:50:42.722Z,32.60
2022-11-09T15:53:29.322Z,32.40
2022-11-09T15:56:21.967Z,32.70
2022-11-09T15:59:35.836Z,33.10
2022-11-09T16:02:22.443Z,33.10
2022-11-09T16:05:09.717Z,33.20
2022-11-09T16:07:56.292Z,33.50
2022-11-09T16:10:43.136Z,33.80
2022-11-09T16:13:29.798Z,33.40
2022-11-09T16:16:16.384Z,33.40
2022-11-09T16:19:03.255Z,33.20
2022-11-09T16:21:51.798Z,32.80
2022-11-09T16:24:38.822Z,32.70
2022-11-09T16:27:49.191Z,32.80
2022-11-09T16:30:33.357Z,33.10
2022-11-09T16:33:20.390Z,33.20
2022-11-09T16:36:11.681Z,33.10
2022-11-09T16:38:58.709Z,33.30
2022-11-09T16:41:48.182Z,32.80
2022-11-09T16:44:37.665Z,32.60
2022-11-09T16:47:24.630Z,32.10
2022-11-09T16:50:11.543Z,32.20
2022-11-09T16:53:00.407Z,31.90
2022-11-09T16:55:46.752Z,31.60
2022-11-09T16:58:33.035Z,31.10
2022-11-09T17:01:23.310Z,30.90
2022-11-09T17:04:10.503Z,30.80
2022-11-09T17:06:57.135Z,30.70
2022-11-09T17:09:43.910Z,30.50
2022-11-09T17:12:31.797Z,30.50
2022-11-09T17:15:18.259Z,30.40
2022-11-09T17:18:04.678Z,30.40
2022-11-09T17:20:51.700Z,30.30
2022-11-09T17:23:39.264Z,30.20
2022-11-09T17:26:26.373Z,30.20
2022-11-09T17:29:12.690Z,30.20
2022-11-09T17:31:59.022Z,30.00
2022-11-09T17:34:45.464Z,29.80
2022-11-09T17:37:31.658Z,29.70
2022-11-09T17:40:18.261Z,29.50
2022-11-09T17:43:05.467Z,29.40
2022-11-09T17:45:52.078Z,29.20
2022-11-09T17:48:40.051Z,29.20
2022-11-09T17:51:26.749Z,29.10
2022-11-09T17:54:13.088Z,29.00
2022-11-09T17:56:59.655Z,28.90
2022-11-09T17:59:46.534Z,28.90
2022-11-09T18:02:33.185Z,28.70
2022-11-09T18:05:19.484Z,28.70
2022-11-09T18:08:07.219Z,28.60
2022-11-09T18:10:53.673Z,28.60
2022-11-09T18:13:41.258Z,28.50
2022-11-09T18:16:27.945Z,28.50
2022-11-09T18:19:14.830Z,28.40
2022-11-09T18:22:02.986Z,28.40
2022-11-09T18:24:50.264Z,28.30
2022-11-09T18:27:36.707Z,28.30
2022-11-09T18:30:23.355Z,28.20
2022-11-09T18:33:10.057Z,28.10
2022-11-09T18:36:02.590Z,28.00
2022-11-09T18:38:49.327Z,28.00
2022-11-09T18:41:35.717Z,27.90
2022-11-09T18:44:22.018Z,28.00
2022-11-09T18:47:08.439Z,27.80
2022-11-09T18:49:54.776Z,27.80
2022-11-09T18:52:41.140Z,27.80
2022-11-09T18:55:27.312Z,27.80
2022-11-09T18:58:13.908Z,27.80
2022-11-09T19:02:07.888Z,27.70
2022-11-09T19:04:54.485Z,27.70
2022-11-09T19:07:40.866Z,27.70
2022-11-09T19:10:27.251Z,27.70
2022-11-09T19:13:13.479Z,27.70
2022-11-09T19:16:00.028Z,27.70
2022-11-09T19:18:46.593Z,27.70
2022-11-09T19:21:49.628Z,27.70
2022-11-09T19:24:35.916Z,27.70
2022-11-09T19:27:22.366Z,27.60
2022-11-09T19:30:11.438Z,27.60
2022-11-09T19:32:57.979Z,27.60
2022-11-09T19:35:52.762Z,27.60
2022-11-09T19:38:51.871Z,27.60
2022-11-09T19:41:38.814Z,27.60
2022-11-09T19:44:25.513Z,27.60
2022-11-09T19:47:11.880Z,27.60
2022-11-09T19:49:58.338Z,27.60
2022-11-09T19:52:45.015Z,27.60
2022-11-09T19:55:31.953Z,27.60
2022-11-09T19:58:18.415Z,27.50
2022-11-09T20:01:10.176Z,27.60
2022-11-09T20:03:58.833Z,27.60
2022-11-09T20:06:45.250Z,27.60
2022-11-09T20:09:32.443Z,27.60
2022-11-09T20:12:18.906Z,27.50
2022-11-09T20:15:05.400Z,27.50
2022-11-09T20:17:52.371Z,27.50
2022-11-09T20:20:38.740Z,27.40
2022-11-09T20:23:25.177Z,27.50
2022-11-09T20:26:12.785Z,27.50
2022-11-09T20:28:59.519Z,27.40
2022-11-09T20:31:45.841Z,27.40
2022-11-09T20:34:32.272Z,27.40
2022-11-09T20:37:18.822Z,27.40
2022-11-09T20:40:06.257Z,27.40
2022-11-09T20:42:52.907Z,27.40
2022-11-09T20:45:39.328Z,27.40
2022-11-09T20:48:52.104Z,27.40
2022-11-09T20:51:32.584Z,27.40
2022-11-09T20:54:19.316Z,27.40
2022-11-09T20:57:05.712Z,27.40
2022-11-09T20:59:51.950Z,27.40
2022-11-09T21:02:38.447Z,27.40
2022-11-09T21:05:24.856Z,27.40
2022-11-09T21:08:11.727Z,27.40
2022-11-09T21:11:00.047Z,27.50
2022-11-09T21:13:51.230Z,27.50
2022-11-09T21:16:37.996Z,27.40
2022-11-09T21:19:24.146Z,27.40
2022-11-09T21:22:10.610Z,27.40
2022-11-09T21:24:56.847Z,27.40
2022-11-09T21:27:47.707Z,27.30
2022-11-09T21:30:34.811Z,27.30
2022-11-09T21:33:21.695Z,27.30
2022-11-09T21:36:09.456Z,27.30
2022-11-09T21:38:56.143Z,27.30
2022-11-09T21:41:42.445Z,27.30
2022-11-09T21:44:30.252Z,27.40
2022-11-09T21:47:16.823Z,27.40
2022-11-09T21:50:08.210Z,27.30
2022-11-09T21:52:57.732Z,27.30
2022-11-09T21:55:44.453Z,27.40
2022-11-09T21:58:30.727Z,27.30
2022-11-09T22:01:18.170Z,27.30
2022-11-09T22:04:05.107Z,27.20
2022-11-09T22:06:51.457Z,27.30
2022-11-09T22:10:05.873Z,27.30
2022-11-09T22:12:44.438Z,27.30
2022-11-09T22:15:30.762Z,27.20
2022-11-09T22:18:17.127Z,27.30
2022-11-09T22:21:03.555Z,27.30
2022-11-09T22:23:50.281Z,27.20
2022-11-09T22:26:36.861Z,27.20
2022-11-09T22:29:23.368Z,27.20
2022-11-09T22:32:09.761Z,27.20
2022-11-09T22:34:56.080Z,27.20
2022-11-09T22:37:42.486Z,27.10
2022-11-09T22:40:29.222Z,27.10
2022-11-09T22:43:15.450Z,27.10
2022-11-09T22:46:10.827Z,27.10
2022-11-09T22:48:57.354Z,27.10
2022-11-09T22:51:43.707Z,27.10
2022-11-09T22:54:30.304Z,27.10
2022-11-09T22:57:16.654Z,27.10
2022-11-09T23:00:02.978Z,27.10
2022-11-09T23:02:49.333Z,27.10
2022-11-09T23:05:35.685Z,27.00
2022-11-09T23:08:22.040Z,27.00
2022-11-09T23:11:18.823Z,27.00
2022-11-09T23:14:05.683Z,27.00
2022-11-09T23:16:51.994Z,27.00
2022-11-09T23:19:38.475Z,27.00
2022-11-09T23:22:24.622Z,27.00
2022-11-09T23:25:12.338Z,27.00
2022-11-09T23:27:59.820Z,27.10
2022-11-09T23:30:46.613Z,27.00
2022-11-09T23:33:33.209Z,27.00
2022-11-09T23:36:19.862Z,27.00
2022-11-09T23:39:06.117Z,27.00
2022-11-09T23:41:52.551Z,27.00
2022-11-09T23:44:38.983Z,27.00
2022-11-09T23:47:25.488Z,27.00
2022-11-09T23:50:11.848Z,27.00
2022-11-09T23:52:59.835Z,27.00
2022-11-09T23:55:46.109Z,27.00
2022-11-09T23:58:33.064Z,27.00
